sensor_id;sensor_type;location;lat;lon;timestamp;P1;durP1;ratioP1;P2;durP2;ratioP2
63738;SDS011;68816;45.558;10.070;2024-03-29T00:01:35;8.07;;;5.32;;
63738;SDS011;68816;45.558;10.070;2024-03-29T00:04:01;8.15;;;5.22;;
63738;SDS011;68816;45.558;10.070;2024-03-29T00:06:26;8.50;;;5.53;;
63738;SDS011;68816;45.558;10.070;2024-03-29T00:08:52;7.80;;;5.40;;
63738;SDS011;68816;45.558;10.070;2024-03-29T00:11:18;8.68;;;5.22;;
63738;SDS011;68816;45.558;10.070;2024-03-29T00:13:43;9.27;;;5.45;;
63738;SDS011;68816;45.558;10.070;2024-03-29T00:16:09;11.77;;;6.38;;
63738;SDS011;68816;45.558;10.070;2024-03-29T00:18:36;9.25;;;7.63;;
63738;SDS011;68816;45.558;10.070;2024-03-29T00:21:02;12.18;;;8.88;;
63738;SDS011;68816;45.558;10.070;2024-03-29T00:23:28;14.98;;;11.13;;
63738;SDS011;68816;45.558;10.070;2024-03-29T00:25:54;17.05;;;12.15;;
63738;SDS011;68816;45.558;10.070;2024-03-29T00:28:23;16.35;;;11.65;;
63738;SDS011;68816;45.558;10.070;2024-03-29T00:30:48;14.48;;;11.35;;
63738;SDS011;68816;45.558;10.070;2024-03-29T00:33:14;17.75;;;12.48;;
63738;SDS011;68816;45.558;10.070;2024-03-29T00:35:40;15.15;;;12.07;;
63738;SDS011;68816;45.558;10.070;2024-03-29T00:38:05;16.23;;;12.40;;
63738;SDS011;68816;45.558;10.070;2024-03-29T00:40:31;18.42;;;12.50;;
63738;SDS011;68816;45.558;10.070;2024-03-29T00:42:57;21.45;;;13.90;;
63738;SDS011;68816;45.558;10.070;2024-03-29T00:45:22;18.55;;;12.77;;
63738;SDS011;68816;45.558;10.070;2024-03-29T00:47:48;16.75;;;12.77;;
63738;SDS011;68816;45.558;10.070;2024-03-29T00:50:13;19.77;;;13.00;;
63738;SDS011;68816;45.558;10.070;2024-03-29T00:52:39;18.02;;;13.13;;
63738;SDS011;68816;45.558;10.070;2024-03-29T00:55:05;19.08;;;13.73;;
63738;SDS011;68816;45.558;10.070;2024-03-29T00:57:31;21.33;;;13.65;;
63738;SDS011;68816;45.558;10.070;2024-03-29T00:59:56;19.20;;;13.85;;
63738;SDS011;68816;45.558;10.070;2024-03-29T01:02:22;18.92;;;14.05;;
63738;SDS011;68816;45.558;10.070;2024-03-29T01:04:48;19.95;;;13.57;;
63738;SDS011;68816;45.558;10.070;2024-03-29T01:07:14;21.25;;;13.98;;
63738;SDS011;68816;45.558;10.070;2024-03-29T01:09:41;21.02;;;15.00;;
63738;SDS011;68816;45.558;10.070;2024-03-29T01:12:08;21.60;;;14.82;;
63738;SDS011;68816;45.558;10.070;2024-03-29T01:14:34;23.23;;;16.77;;
63738;SDS011;68816;45.558;10.070;2024-03-29T01:17:00;23.98;;;16.63;;
63738;SDS011;68816;45.558;10.070;2024-03-29T01:19:26;26.08;;;16.27;;
63738;SDS011;68816;45.558;10.070;2024-03-29T01:21:52;23.02;;;16.10;;
63738;SDS011;68816;45.558;10.070;2024-03-29T01:24:18;19.92;;;15.75;;
63738;SDS011;68816;45.558;10.070;2024-03-29T01:26:43;20.88;;;15.73;;
63738;SDS011;68816;45.558;10.070;2024-03-29T01:29:09;24.92;;;17.13;;
63738;SDS011;68816;45.558;10.070;2024-03-29T01:31:36;23.88;;;17.17;;
63738;SDS011;68816;45.558;10.070;2024-03-29T01:34:02;30.95;;;19.63;;
63738;SDS011;68816;45.558;10.070;2024-03-29T01:36:28;27.25;;;18.92;;
63738;SDS011;68816;45.558;10.070;2024-03-29T01:38:54;26.13;;;19.00;;
63738;SDS011;68816;45.558;10.070;2024-03-29T01:41:22;31.20;;;19.25;;
63738;SDS011;68816;45.558;10.070;2024-03-29T01:43:49;25.45;;;18.38;;
63738;SDS011;68816;45.558;10.070;2024-03-29T01:46:15;26.33;;;18.98;;
63738;SDS011;68816;45.558;10.070;2024-03-29T01:48:44;28.80;;;19.98;;
63738;SDS011;68816;45.558;10.070;2024-03-29T01:51:10;26.40;;;18.10;;
63738;SDS011;68816;45.558;10.070;2024-03-29T01:58:29;28.02;;;19.77;;
63738;SDS011;68816;45.558;10.070;2024-03-29T02:00:55;27.90;;;19.15;;
63738;SDS011;68816;45.558;10.070;2024-03-29T02:03:23;27.58;;;20.83;;
63738;SDS011;68816;45.558;10.070;2024-03-29T02:05:49;27.60;;;20.33;;
63738;SDS011;68816;45.558;10.070;2024-03-29T02:08:15;31.13;;;20.38;;
63738;SDS011;68816;45.558;10.070;2024-03-29T02:10:41;30.50;;;20.40;;
63738;SDS011;68816;45.558;10.070;2024-03-29T02:13:08;30.05;;;21.83;;
63738;SDS011;68816;45.558;10.070;2024-03-29T02:15:34;32.67;;;22.08;;
63738;SDS011;68816;45.558;10.070;2024-03-29T02:17:59;30.13;;;21.63;;
63738;SDS011;68816;45.558;10.070;2024-03-29T02:20:25;33.63;;;23.45;;
63738;SDS011;68816;45.558;10.070;2024-03-29T02:22:53;36.33;;;24.27;;
63738;SDS011;68816;45.558;10.070;2024-03-29T02:25:20;34.28;;;24.88;;
63738;SDS011;68816;45.558;10.070;2024-03-29T02:27:46;35.80;;;25.33;;
63738;SDS011;68816;45.558;10.070;2024-03-29T02:30:15;41.10;;;26.05;;
63738;SDS011;68816;45.558;10.070;2024-03-29T02:32:41;36.60;;;26.77;;
63738;SDS011;68816;45.558;10.070;2024-03-29T02:35:07;34.00;;;25.95;;
63738;SDS011;68816;45.558;10.070;2024-03-29T02:37:34;32.83;;;25.40;;
63738;SDS011;68816;45.558;10.070;2024-03-29T02:40:01;35.33;;;25.73;;
63738;SDS011;68816;45.558;10.070;2024-03-29T02:42:26;33.22;;;24.75;;
63738;SDS011;68816;45.558;10.070;2024-03-29T02:44:52;36.35;;;26.05;;
63738;SDS011;68816;45.558;10.070;2024-03-29T02:47:17;31.98;;;24.67;;
63738;SDS011;68816;45.558;10.070;2024-03-29T02:49:43;33.80;;;25.05;;
63738;SDS011;68816;45.558;10.070;2024-03-29T02:52:08;34.05;;;24.92;;
63738;SDS011;68816;45.558;10.070;2024-03-29T02:54:34;35.10;;;24.60;;
63738;SDS011;68816;45.558;10.070;2024-03-29T02:56:59;32.63;;;24.48;;
63738;SDS011;68816;45.558;10.070;2024-03-29T02:59:25;35.78;;;24.73;;
63738;SDS011;68816;45.558;10.070;2024-03-29T03:01:50;33.80;;;24.67;;
63738;SDS011;68816;45.558;10.070;2024-03-29T03:04:16;34.33;;;24.13;;
63738;SDS011;68816;45.558;10.070;2024-03-29T03:06:41;33.90;;;23.88;;
63738;SDS011;68816;45.558;10.070;2024-03-29T03:09:06;30.85;;;22.58;;
63738;SDS011;68816;45.558;10.070;2024-03-29T03:11:51;34.83;;;22.17;;
63738;SDS011;68816;45.558;10.070;2024-03-29T03:14:16;31.67;;;22.25;;
63738;SDS011;68816;45.558;10.070;2024-03-29T03:16:41;31.27;;;21.90;;
63738;SDS011;68816;45.558;10.070;2024-03-29T03:19:07;29.70;;;20.23;;
63738;SDS011;68816;45.558;10.070;2024-03-29T03:21:32;30.10;;;21.10;;
63738;SDS011;68816;45.558;10.070;2024-03-29T03:23:58;30.00;;;20.48;;
63738;SDS011;68816;45.558;10.070;2024-03-29T03:26:23;26.25;;;20.17;;
63738;SDS011;68816;45.558;10.070;2024-03-29T03:28:49;29.48;;;20.63;;
63738;SDS011;68816;45.558;10.070;2024-03-29T03:31:14;26.75;;;19.67;;
63738;SDS011;68816;45.558;10.070;2024-03-29T03:33:39;26.20;;;19.30;;
63738;SDS011;68816;45.558;10.070;2024-03-29T03:36:05;27.15;;;19.75;;
63738;SDS011;68816;45.558;10.070;2024-03-29T03:38:31;26.85;;;20.67;;
63738;SDS011;68816;45.558;10.070;2024-03-29T03:40:59;29.20;;;19.80;;
63738;SDS011;68816;45.558;10.070;2024-03-29T03:43:24;28.50;;;19.73;;
63738;SDS011;68816;45.558;10.070;2024-03-29T03:45:50;29.25;;;20.60;;
63738;SDS011;68816;45.558;10.070;2024-03-29T03:48:15;25.55;;;19.55;;
63738;SDS011;68816;45.558;10.070;2024-03-29T03:50:40;27.50;;;20.83;;
63738;SDS011;68816;45.558;10.070;2024-03-29T03:53:06;27.38;;;21.48;;
63738;SDS011;68816;45.558;10.070;2024-03-29T03:55:38;29.63;;;22.63;;
63738;SDS011;68816;45.558;10.070;2024-03-29T03:58:04;28.42;;;21.92;;
63738;SDS011;68816;45.558;10.070;2024-03-29T04:00:29;34.60;;;25.60;;
63738;SDS011;68816;45.558;10.070;2024-03-29T04:02:55;38.72;;;27.83;;
63738;SDS011;68816;45.558;10.070;2024-03-29T04:05:21;35.72;;;27.30;;
63738;SDS011;68816;45.558;10.070;2024-03-29T04:07:47;31.73;;;24.75;;
63738;SDS011;68816;45.558;10.070;2024-03-29T04:10:14;32.63;;;24.10;;
63738;SDS011;68816;45.558;10.070;2024-03-29T04:12:40;33.45;;;23.55;;
63738;SDS011;68816;45.558;10.070;2024-03-29T04:15:06;30.65;;;23.55;;
63738;SDS011;68816;45.558;10.070;2024-03-29T04:17:31;33.00;;;24.08;;
63738;SDS011;68816;45.558;10.070;2024-03-29T04:20:00;28.92;;;23.38;;
63738;SDS011;68816;45.558;10.070;2024-03-29T04:22:28;31.08;;;22.60;;
63738;SDS011;68816;45.558;10.070;2024-03-29T04:24:54;28.90;;;22.38;;
63738;SDS011;68816;45.558;10.070;2024-03-29T04:27:20;27.20;;;22.02;;
63738;SDS011;68816;45.558;10.070;2024-03-29T04:29:45;29.88;;;22.88;;
63738;SDS011;68816;45.558;10.070;2024-03-29T04:32:10;31.30;;;23.20;;
63738;SDS011;68816;45.558;10.070;2024-03-29T04:34:36;31.02;;;23.27;;
63738;SDS011;68816;45.558;10.070;2024-03-29T04:37:01;30.92;;;23.92;;
63738;SDS011;68816;45.558;10.070;2024-03-29T04:39:27;31.17;;;23.05;;
63738;SDS011;68816;45.558;10.070;2024-03-29T04:41:53;33.72;;;24.27;;
63738;SDS011;68816;45.558;10.070;2024-03-29T04:44:23;30.45;;;22.80;;
63738;SDS011;68816;45.558;10.070;2024-03-29T04:46:50;32.00;;;24.35;;
63738;SDS011;68816;45.558;10.070;2024-03-29T04:49:18;33.42;;;25.40;;
63738;SDS011;68816;45.558;10.070;2024-03-29T04:51:48;32.58;;;26.27;;
63738;SDS011;68816;45.558;10.070;2024-03-29T04:54:16;32.05;;;24.00;;
63738;SDS011;68816;45.558;10.070;2024-03-29T04:56:42;32.28;;;23.50;;
63738;SDS011;68816;45.558;10.070;2024-03-29T04:59:08;33.47;;;24.10;;
63738;SDS011;68816;45.558;10.070;2024-03-29T05:01:35;34.85;;;25.10;;
63738;SDS011;68816;45.558;10.070;2024-03-29T05:04:01;34.80;;;26.15;;
63738;SDS011;68816;45.558;10.070;2024-03-29T05:06:26;34.75;;;26.27;;
63738;SDS011;68816;45.558;10.070;2024-03-29T05:08:52;40.20;;;28.13;;
63738;SDS011;68816;45.558;10.070;2024-03-29T05:11:17;35.72;;;24.15;;
63738;SDS011;68816;45.558;10.070;2024-03-29T05:13:44;36.67;;;26.33;;
63738;SDS011;68816;45.558;10.070;2024-03-29T05:16:09;38.38;;;26.33;;
63738;SDS011;68816;45.558;10.070;2024-03-29T05:18:35;36.92;;;25.85;;
63738;SDS011;68816;45.558;10.070;2024-03-29T05:21:00;34.97;;;24.77;;
63738;SDS011;68816;45.558;10.070;2024-03-29T05:23:26;38.08;;;25.33;;
63738;SDS011;68816;45.558;10.070;2024-03-29T05:25:52;44.08;;;26.40;;
63738;SDS011;68816;45.558;10.070;2024-03-29T05:28:17;38.38;;;25.77;;
63738;SDS011;68816;45.558;10.070;2024-03-29T05:30:43;41.50;;;26.83;;
63738;SDS011;68816;45.558;10.070;2024-03-29T05:33:08;39.58;;;28.10;;
63738;SDS011;68816;45.558;10.070;2024-03-29T05:35:34;42.55;;;27.75;;
63738;SDS011;68816;45.558;10.070;2024-03-29T05:38:00;40.45;;;27.80;;
63738;SDS011;68816;45.558;10.070;2024-03-29T05:40:25;43.78;;;27.13;;
63738;SDS011;68816;45.558;10.070;2024-03-29T05:42:52;42.85;;;29.02;;
63738;SDS011;68816;45.558;10.070;2024-03-29T05:45:25;45.17;;;29.50;;
63738;SDS011;68816;45.558;10.070;2024-03-29T05:47:54;47.10;;;29.02;;
63738;SDS011;68816;45.558;10.070;2024-03-29T05:50:21;52.00;;;31.88;;
63738;SDS011;68816;45.558;10.070;2024-03-29T05:52:47;47.83;;;29.88;;
63738;SDS011;68816;45.558;10.070;2024-03-29T05:55:12;54.35;;;31.95;;
63738;SDS011;68816;45.558;10.070;2024-03-29T05:57:38;50.70;;;33.67;;
63738;SDS011;68816;45.558;10.070;2024-03-29T06:00:06;54.30;;;34.50;;
63738;SDS011;68816;45.558;10.070;2024-03-29T06:02:34;59.75;;;35.88;;
63738;SDS011;68816;45.558;10.070;2024-03-29T06:05:00;54.92;;;34.13;;
63738;SDS011;68816;45.558;10.070;2024-03-29T06:07:25;56.38;;;34.25;;
63738;SDS011;68816;45.558;10.070;2024-03-29T06:09:53;54.63;;;32.97;;
63738;SDS011;68816;45.558;10.070;2024-03-29T06:12:19;56.13;;;34.47;;
63738;SDS011;68816;45.558;10.070;2024-03-29T06:14:44;57.15;;;35.10;;
63738;SDS011;68816;45.558;10.070;2024-03-29T06:17:29;53.78;;;33.97;;
63738;SDS011;68816;45.558;10.070;2024-03-29T06:19:55;50.72;;;32.70;;
63738;SDS011;68816;45.558;10.070;2024-03-29T06:22:24;57.08;;;34.20;;
63738;SDS011;68816;45.558;10.070;2024-03-29T06:24:51;51.97;;;32.88;;
63738;SDS011;68816;45.558;10.070;2024-03-29T06:27:17;48.60;;;32.72;;
63738;SDS011;68816;45.558;10.070;2024-03-29T06:29:44;54.58;;;33.22;;
63738;SDS011;68816;45.558;10.070;2024-03-29T06:32:10;50.08;;;32.22;;
63738;SDS011;68816;45.558;10.070;2024-03-29T06:34:35;51.78;;;32.10;;
63738;SDS011;68816;45.558;10.070;2024-03-29T06:37:01;49.88;;;32.70;;
63738;SDS011;68816;45.558;10.070;2024-03-29T06:39:27;49.20;;;31.95;;
63738;SDS011;68816;45.558;10.070;2024-03-29T06:41:52;54.58;;;35.28;;
63738;SDS011;68816;45.558;10.070;2024-03-29T06:44:18;56.60;;;36.53;;
63738;SDS011;68816;45.558;10.070;2024-03-29T06:46:43;49.63;;;33.95;;
63738;SDS011;68816;45.558;10.070;2024-03-29T06:49:09;52.22;;;33.67;;
63738;SDS011;68816;45.558;10.070;2024-03-29T06:51:34;52.80;;;34.75;;
63738;SDS011;68816;45.558;10.070;2024-03-29T06:54:00;50.30;;;35.45;;
63738;SDS011;68816;45.558;10.070;2024-03-29T06:56:25;56.95;;;38.67;;
63738;SDS011;68816;45.558;10.070;2024-03-29T06:58:50;53.38;;;34.47;;
63738;SDS011;68816;45.558;10.070;2024-03-29T07:01:16;49.22;;;32.28;;
63738;SDS011;68816;45.558;10.070;2024-03-29T07:03:41;52.00;;;34.38;;
63738;SDS011;68816;45.558;10.070;2024-03-29T07:06:07;56.88;;;35.10;;
63738;SDS011;68816;45.558;10.070;2024-03-29T07:08:32;66.38;;;39.08;;
63738;SDS011;68816;45.558;10.070;2024-03-29T07:11:01;66.88;;;41.53;;
63738;SDS011;68816;45.558;10.070;2024-03-29T07:13:29;64.78;;;40.45;;
63738;SDS011;68816;45.558;10.070;2024-03-29T07:15:58;59.10;;;35.95;;
63738;SDS011;68816;45.558;10.070;2024-03-29T07:18:24;59.30;;;34.92;;
63738;SDS011;68816;45.558;10.070;2024-03-29T07:20:50;65.75;;;40.17;;
63738;SDS011;68816;45.558;10.070;2024-03-29T07:23:15;60.58;;;36.10;;
63738;SDS011;68816;45.558;10.070;2024-03-29T07:25:43;59.50;;;35.72;;
63738;SDS011;68816;45.558;10.070;2024-03-29T07:28:09;61.47;;;36.60;;
63738;SDS011;68816;45.558;10.070;2024-03-29T07:30:35;58.75;;;35.63;;
63738;SDS011;68816;45.558;10.070;2024-03-29T07:33:03;59.75;;;35.53;;
63738;SDS011;68816;45.558;10.070;2024-03-29T07:35:29;57.63;;;36.83;;
63738;SDS011;68816;45.558;10.070;2024-03-29T07:37:55;62.78;;;37.63;;
63738;SDS011;68816;45.558;10.070;2024-03-29T07:40:22;77.78;;;49.60;;
63738;SDS011;68816;45.558;10.070;2024-03-29T07:42:47;74.35;;;45.00;;
63738;SDS011;68816;45.558;10.070;2024-03-29T07:45:13;67.95;;;42.35;;
63738;SDS011;68816;45.558;10.070;2024-03-29T07:47:38;68.22;;;41.45;;
63738;SDS011;68816;45.558;10.070;2024-03-29T07:50:04;67.85;;;40.13;;
63738;SDS011;68816;45.558;10.070;2024-03-29T07:52:31;68.45;;;40.80;;
63738;SDS011;68816;45.558;10.070;2024-03-29T07:54:58;62.97;;;39.03;;
63738;SDS011;68816;45.558;10.070;2024-03-29T07:57:24;61.88;;;35.38;;
63738;SDS011;68816;45.558;10.070;2024-03-29T07:59:50;55.17;;;33.25;;
63738;SDS011;68816;45.558;10.070;2024-03-29T08:02:16;57.20;;;34.20;;
63738;SDS011;68816;45.558;10.070;2024-03-29T08:04:41;58.10;;;31.98;;
63738;SDS011;68816;45.558;10.070;2024-03-29T08:07:08;52.10;;;31.38;;
63738;SDS011;68816;45.558;10.070;2024-03-29T08:09:34;49.22;;;30.08;;
63738;SDS011;68816;45.558;10.070;2024-03-29T08:12:00;51.97;;;30.67;;
63738;SDS011;68816;45.558;10.070;2024-03-29T08:14:25;51.35;;;32.50;;
63738;SDS011;68816;45.558;10.070;2024-03-29T08:16:52;52.78;;;32.42;;
63738;SDS011;68816;45.558;10.070;2024-03-29T08:19:19;47.65;;;29.67;;
63738;SDS011;68816;45.558;10.070;2024-03-29T08:21:45;44.30;;;28.02;;
63738;SDS011;68816;45.558;10.070;2024-03-29T08:24:10;42.20;;;27.20;;
63738;SDS011;68816;45.558;10.070;2024-03-29T08:26:36;42.13;;;26.17;;
63738;SDS011;68816;45.558;10.070;2024-03-29T08:29:02;42.78;;;26.00;;
63738;SDS011;68816;45.558;10.070;2024-03-29T08:31:28;36.38;;;22.73;;
63738;SDS011;68816;45.558;10.070;2024-03-29T08:33:53;30.90;;;20.45;;
63738;SDS011;68816;45.558;10.070;2024-03-29T08:36:19;32.08;;;19.08;;
63738;SDS011;68816;45.558;10.070;2024-03-29T08:38:44;28.45;;;17.45;;
63738;SDS011;68816;45.558;10.070;2024-03-29T08:41:11;26.85;;;16.58;;
63738;SDS011;68816;45.558;10.070;2024-03-29T08:43:37;21.50;;;14.23;;
63738;SDS011;68816;45.558;10.070;2024-03-29T08:46:04;24.95;;;14.68;;
63738;SDS011;68816;45.558;10.070;2024-03-29T08:48:30;26.88;;;15.85;;
63738;SDS011;68816;45.558;10.070;2024-03-29T08:50:55;25.33;;;15.10;;
63738;SDS011;68816;45.558;10.070;2024-03-29T08:53:21;28.77;;;16.05;;
63738;SDS011;68816;45.558;10.070;2024-03-29T08:55:47;26.50;;;16.08;;
63738;SDS011;68816;45.558;10.070;2024-03-29T08:58:15;21.85;;;13.27;;
63738;SDS011;68816;45.558;10.070;2024-03-29T09:00:41;30.88;;;13.70;;
63738;SDS011;68816;45.558;10.070;2024-03-29T09:03:06;22.08;;;12.68;;
63738;SDS011;68816;45.558;10.070;2024-03-29T09:05:32;18.23;;;11.00;;
63738;SDS011;68816;45.558;10.070;2024-03-29T09:07:58;17.88;;;10.60;;
63738;SDS011;68816;45.558;10.070;2024-03-29T09:10:23;21.25;;;11.27;;
63738;SDS011;68816;45.558;10.070;2024-03-29T09:12:49;17.60;;;10.80;;
63738;SDS011;68816;45.558;10.070;2024-03-29T09:15:15;18.45;;;10.68;;
63738;SDS011;68816;45.558;10.070;2024-03-29T09:17:45;14.88;;;8.88;;
63738;SDS011;68816;45.558;10.070;2024-03-29T09:20:11;12.70;;;7.38;;
63738;SDS011;68816;45.558;10.070;2024-03-29T09:22:37;10.43;;;6.97;;
63738;SDS011;68816;45.558;10.070;2024-03-29T09:25:03;14.77;;;7.43;;
63738;SDS011;68816;45.558;10.070;2024-03-29T09:27:29;12.45;;;7.03;;
63738;SDS011;68816;45.558;10.070;2024-03-29T09:29:58;13.57;;;7.75;;
63738;SDS011;68816;45.558;10.070;2024-03-29T09:32:24;11.68;;;6.50;;
63738;SDS011;68816;45.558;10.070;2024-03-29T09:34:49;12.52;;;7.25;;
63738;SDS011;68816;45.558;10.070;2024-03-29T09:37:15;15.50;;;6.75;;
63738;SDS011;68816;45.558;10.070;2024-03-29T09:39:42;14.35;;;6.85;;
63738;SDS011;68816;45.558;10.070;2024-03-29T09:42:08;12.23;;;6.75;;
63738;SDS011;68816;45.558;10.070;2024-03-29T09:44:39;16.23;;;7.82;;
63738;SDS011;68816;45.558;10.070;2024-03-29T09:47:06;14.63;;;8.77;;
63738;SDS011;68816;45.558;10.070;2024-03-29T09:49:32;16.00;;;9.45;;
63738;SDS011;68816;45.558;10.070;2024-03-29T09:52:01;15.98;;;8.30;;
63738;SDS011;68816;45.558;10.070;2024-03-29T09:54:29;11.25;;;8.75;;
63738;SDS011;68816;45.558;10.070;2024-03-29T09:56:59;16.13;;;9.57;;
63738;SDS011;68816;45.558;10.070;2024-03-29T09:59:24;15.40;;;9.70;;
63738;SDS011;68816;45.558;10.070;2024-03-29T10:01:55;20.42;;;10.30;;
63738;SDS011;68816;45.558;10.070;2024-03-29T10:04:23;19.42;;;10.93;;
63738;SDS011;68816;45.558;10.070;2024-03-29T10:06:49;21.95;;;10.52;;
63738;SDS011;68816;45.558;10.070;2024-03-29T10:09:18;15.68;;;9.50;;
63738;SDS011;68816;45.558;10.070;2024-03-29T10:11:44;18.23;;;10.38;;
63738;SDS011;68816;45.558;10.070;2024-03-29T10:14:11;14.48;;;9.30;;
63738;SDS011;68816;45.558;10.070;2024-03-29T10:16:36;17.63;;;8.95;;
63738;SDS011;68816;45.558;10.070;2024-03-29T10:19:03;13.45;;;7.85;;
63738;SDS011;68816;45.558;10.070;2024-03-29T10:21:28;16.40;;;9.13;;
63738;SDS011;68816;45.558;10.070;2024-03-29T10:23:54;16.27;;;8.50;;
63738;SDS011;68816;45.558;10.070;2024-03-29T10:26:20;18.83;;;8.70;;
63738;SDS011;68816;45.558;10.070;2024-03-29T10:28:47;17.42;;;8.57;;
63738;SDS011;68816;45.558;10.070;2024-03-29T10:31:14;16.42;;;8.07;;
63738;SDS011;68816;45.558;10.070;2024-03-29T10:33:41;14.80;;;8.40;;
63738;SDS011;68816;45.558;10.070;2024-03-29T10:36:08;14.85;;;7.45;;
63738;SDS011;68816;45.558;10.070;2024-03-29T10:38:37;12.05;;;7.20;;
63738;SDS011;68816;45.558;10.070;2024-03-29T10:41:03;17.73;;;7.65;;
63738;SDS011;68816;45.558;10.070;2024-03-29T10:43:31;13.20;;;6.97;;
63738;SDS011;68816;45.558;10.070;2024-03-29T10:45:57;14.95;;;6.35;;
63738;SDS011;68816;45.558;10.070;2024-03-29T10:48:28;12.30;;;5.85;;
63738;SDS011;68816;45.558;10.070;2024-03-29T10:50:54;18.10;;;6.53;;
63738;SDS011;68816;45.558;10.070;2024-03-29T10:53:23;15.88;;;6.10;;
63738;SDS011;68816;45.558;10.070;2024-03-29T10:55:56;12.38;;;5.63;;
63738;SDS011;68816;45.558;10.070;2024-03-29T10:58:25;14.90;;;5.65;;
63738;SDS011;68816;45.558;10.070;2024-03-29T11:00:58;15.18;;;5.95;;
63738;SDS011;68816;45.558;10.070;2024-03-29T11:06:04;13.07;;;5.45;;
63738;SDS011;68816;45.558;10.070;2024-03-29T11:08:34;10.00;;;4.22;;
63738;SDS011;68816;45.558;10.070;2024-03-29T11:11:07;23.25;;;8.82;;
63738;SDS011;68816;45.558;10.070;2024-03-29T11:13:38;16.13;;;7.38;;
63738;SDS011;68816;45.558;10.070;2024-03-29T11:16:10;12.07;;;4.72;;
63738;SDS011;68816;45.558;10.070;2024-03-29T11:18:36;17.55;;;5.53;;
63738;SDS011;68816;45.558;10.070;2024-03-29T11:21:03;12.13;;;4.50;;
63738;SDS011;68816;45.558;10.070;2024-03-29T11:23:31;14.57;;;5.05;;
63738;SDS011;68816;45.558;10.070;2024-03-29T11:25:57;10.98;;;4.80;;
63738;SDS011;68816;45.558;10.070;2024-03-29T11:28:25;15.07;;;3.67;;
63738;SDS011;68816;45.558;10.070;2024-03-29T11:31:00;8.20;;;2.35;;
63738;SDS011;68816;45.558;10.070;2024-03-29T11:33:33;8.68;;;3.20;;
63738;SDS011;68816;45.558;10.070;2024-03-29T11:36:10;11.93;;;2.58;;
63738;SDS011;68816;45.558;10.070;2024-03-29T11:38:37;10.18;;;2.92;;
63738;SDS011;68816;45.558;10.070;2024-03-29T11:41:10;9.98;;;2.83;;
63738;SDS011;68816;45.558;10.070;2024-03-29T11:43:39;11.85;;;3.80;;
63738;SDS011;68816;45.558;10.070;2024-03-29T11:46:07;11.40;;;3.95;;
63738;SDS011;68816;45.558;10.070;2024-03-29T11:48:33;13.60;;;4.07;;
63738;SDS011;68816;45.558;10.070;2024-03-29T11:51:00;10.15;;;2.92;;
63738;SDS011;68816;45.558;10.070;2024-03-29T11:53:28;12.13;;;2.78;;
63738;SDS011;68816;45.558;10.070;2024-03-29T11:55:54;456.50;;;42.25;;
63738;SDS011;68816;45.558;10.070;2024-03-29T11:58:21;31.08;;;4.53;;
63738;SDS011;68816;45.558;10.070;2024-03-29T12:00:48;9.43;;;2.78;;
63738;SDS011;68816;45.558;10.070;2024-03-29T12:03:17;9.93;;;2.88;;
63738;SDS011;68816;45.558;10.070;2024-03-29T12:05:45;7.50;;;2.47;;
63738;SDS011;68816;45.558;10.070;2024-03-29T12:08:11;10.07;;;3.22;;
63738;SDS011;68816;45.558;10.070;2024-03-29T12:10:37;9.00;;;2.50;;
63738;SDS011;68816;45.558;10.070;2024-03-29T12:13:03;7.70;;;2.75;;
63738;SDS011;68816;45.558;10.070;2024-03-29T12:15:30;13.35;;;2.72;;
63738;SDS011;68816;45.558;10.070;2024-03-29T12:20:22;11.90;;;2.67;;
63738;SDS011;68816;45.558;10.070;2024-03-29T12:22:48;10.73;;;3.53;;
63738;SDS011;68816;45.558;10.070;2024-03-29T12:25:13;11.32;;;4.10;;
63738;SDS011;68816;45.558;10.070;2024-03-29T12:27:39;11.07;;;3.00;;
63738;SDS011;68816;45.558;10.070;2024-03-29T12:30:08;12.98;;;3.22;;
63738;SDS011;68816;45.558;10.070;2024-03-29T12:32:35;13.80;;;3.28;;
63738;SDS011;68816;45.558;10.070;2024-03-29T12:35:10;8.55;;;2.80;;
63738;SDS011;68816;45.558;10.070;2024-03-29T12:37:36;9.73;;;2.30;;
63738;SDS011;68816;45.558;10.070;2024-03-29T12:40:04;10.95;;;2.78;;
63738;SDS011;68816;45.558;10.070;2024-03-29T12:42:40;11.30;;;2.85;;
63738;SDS011;68816;45.558;10.070;2024-03-29T12:45:06;10.88;;;2.67;;
63738;SDS011;68816;45.558;10.070;2024-03-29T12:47:33;10.90;;;2.80;;
63738;SDS011;68816;45.558;10.070;2024-03-29T12:50:00;13.65;;;3.00;;
63738;SDS011;68816;45.558;10.070;2024-03-29T12:52:26;12.00;;;3.45;;
63738;SDS011;68816;45.558;10.070;2024-03-29T12:54:52;13.82;;;3.03;;
63738;SDS011;68816;45.558;10.070;2024-03-29T12:57:17;11.40;;;2.88;;
63738;SDS011;68816;45.558;10.070;2024-03-29T12:59:43;13.40;;;3.55;;
63738;SDS011;68816;45.558;10.070;2024-03-29T13:02:11;14.07;;;4.30;;
63738;SDS011;68816;45.558;10.070;2024-03-29T13:04:38;10.48;;;3.47;;
63738;SDS011;68816;45.558;10.070;2024-03-29T13:07:08;16.10;;;3.15;;
63738;SDS011;68816;45.558;10.070;2024-03-29T13:09:34;12.23;;;3.25;;
63738;SDS011;68816;45.558;10.070;2024-03-29T13:12:00;9.63;;;3.95;;
63738;SDS011;68816;45.558;10.070;2024-03-29T13:14:25;13.82;;;3.88;;
63738;SDS011;68816;45.558;10.070;2024-03-29T13:16:51;14.15;;;3.78;;
63738;SDS011;68816;45.558;10.070;2024-03-29T13:19:16;16.88;;;3.97;;
63738;SDS011;68816;45.558;10.070;2024-03-29T13:21:42;12.95;;;3.67;;
63738;SDS011;68816;45.558;10.070;2024-03-29T13:24:07;10.10;;;3.75;;
63738;SDS011;68816;45.558;10.070;2024-03-29T13:26:33;10.95;;;3.30;;
63738;SDS011;68816;45.558;10.070;2024-03-29T13:28:59;17.20;;;3.90;;
63738;SDS011;68816;45.558;10.070;2024-03-29T13:31:25;11.20;;;3.92;;
63738;SDS011;68816;45.558;10.070;2024-03-29T13:33:53;10.90;;;3.90;;
63738;SDS011;68816;45.558;10.070;2024-03-29T13:36:25;12.18;;;3.60;;
63738;SDS011;68816;45.558;10.070;2024-03-29T13:38:51;14.82;;;4.78;;
63738;SDS011;68816;45.558;10.070;2024-03-29T13:41:16;11.30;;;4.68;;
63738;SDS011;68816;45.558;10.070;2024-03-29T13:43:44;19.13;;;4.07;;
63738;SDS011;68816;45.558;10.070;2024-03-29T13:46:09;19.23;;;7.90;;
63738;SDS011;68816;45.558;10.070;2024-03-29T13:48:35;16.52;;;7.30;;
63738;SDS011;68816;45.558;10.070;2024-03-29T13:51:00;15.18;;;6.18;;
63738;SDS011;68816;45.558;10.070;2024-03-29T13:53:26;15.25;;;6.88;;
63738;SDS011;68816;45.558;10.070;2024-03-29T13:55:51;15.10;;;4.88;;
63738;SDS011;68816;45.558;10.070;2024-03-29T13:58:17;11.20;;;3.92;;
63738;SDS011;68816;45.558;10.070;2024-03-29T14:00:42;10.85;;;3.75;;
63738;SDS011;68816;45.558;10.070;2024-03-29T14:03:08;12.45;;;3.97;;
63738;SDS011;68816;45.558;10.070;2024-03-29T14:05:33;9.63;;;3.90;;
63738;SDS011;68816;45.558;10.070;2024-03-29T14:07:59;11.43;;;3.80;;
63738;SDS011;68816;45.558;10.070;2024-03-29T14:10:24;12.52;;;4.30;;
63738;SDS011;68816;45.558;10.070;2024-03-29T14:12:50;15.05;;;4.32;;
63738;SDS011;68816;45.558;10.070;2024-03-29T14:15:17;11.45;;;4.20;;
63738;SDS011;68816;45.558;10.070;2024-03-29T14:17:43;16.13;;;4.60;;
63738;SDS011;68816;45.558;10.070;2024-03-29T14:20:09;9.68;;;3.22;;